Sand Point, Michigan
Current Conditions -  °F | °C
As of 11:39 AM on Thursday 30 Oct 2014 (Local Time) from KBAX Reporting Station
Scattered Clouds Scattered Clouds  
Wind Chill: 39°   Ceiling: Unl
Heat Index: 43°   Visibility: 10mi
Dew Point: 36°   Wind: 7mph
Humidity: 77%   Direction: 300°WNW
Pressure: 30.12"   Gusts: NA
Location:  43.8338°N, 83.2671°W
Report Text: KBAX 301539Z AUTO 30006KT 10SM SCT019 06/02 A3012 RMK AO2 T00600023
Loading
Personal Weather Stations






























Interactive Weather Map New forecast layout! Learn more

10-Day Weather Forecast

Advertisements
Track Severe Weather on mobile